Time;durP1;ratioP1;P1;durP2;ratioP2;P2;SDS_P1;SDS_P2;PMS_P1;PMS_P2;Temp;Humidity;BMP_temperature;BMP_pressure;BME280_temperature;BME280_humidity;BME280_pressure;Samples;Min_cycle;Max_cycle;Signal;HPM_P1;HPM_P2
2021/08/29 00:01:45;;;;;;;13.03;8.67;;;;;;;15.53;100.00;101023.28;4993268;28;20276;-72
2021/08/29 00:04:11;;;;;;;12.10;8.67;;;;;;;15.60;100.00;101023.69;4970131;28;20199;-72
2021/08/29 00:06:36;;;;;;;11.90;8.80;;;;;;;15.57;100.00;101018.03;4991625;28;20737;-73
2021/08/29 00:09:03;;;;;;;10.23;9.00;;;;;;;15.59;100.00;101015.81;4993508;28;20189;-72
2021/08/29 00:11:32;;;;;;;11.47;9.13;;;;;;;15.54;100.00;101022.16;4991424;28;20218;-72
2021/08/29 00:13:57;;;;;;;11.70;8.97;;;;;;;15.58;100.00;101025.13;4993997;28;20188;-72
2021/08/29 00:16:23;;;;;;;12.30;9.03;;;;;;;15.58;100.00;101014.16;4973463;28;20230;-72
2021/08/29 00:18:52;;;;;;;16.60;9.07;;;;;;;15.62;100.00;101010.56;4989923;28;20202;-73
2021/08/29 00:21:21;;;;;;;14.70;9.77;;;;;;;15.59;100.00;101013.06;4977571;28;20610;-72
2021/08/29 00:23:49;;;;;;;13.37;9.33;;;;;;;15.75;100.00;101006.22;4994586;28;20186;-71
2021/08/29 00:26:17;;;;;;;12.07;9.38;;;;;;;15.73;100.00;101005.72;4977203;28;20225;-71
2021/08/29 00:28:43;;;;;;;12.57;9.53;;;;;;;15.59;100.00;101004.84;4993114;28;20268;-72
2021/08/29 00:31:13;;;;;;;13.47;8.93;;;;;;;15.57;100.00;101007.06;4992304;28;20217;-70
2021/08/29 00:33:39;;;;;;;12.40;9.37;;;;;;;15.55;100.00;100998.34;4994826;28;20711;-73
2021/08/29 00:36:07;;;;;;;14.10;8.68;;;;;;;15.66;100.00;100999.78;4992813;28;20229;-73
2021/08/29 00:38:33;;;;;;;14.27;9.40;;;;;;;15.59;100.00;100999.38;4993086;28;20196;-73
2021/08/29 00:41:01;;;;;;;13.93;8.20;;;;;;;15.74;100.00;101005.44;4976468;28;20280;-74
2021/08/29 00:43:27;;;;;;;9.88;8.40;;;;;;;15.64;100.00;101007.50;4992697;28;20178;-72
2021/08/29 00:45:55;;;;;;;13.90;8.90;;;;;;;15.67;100.00;101004.16;4976770;28;20296;-72
2021/08/29 00:48:21;;;;;;;11.57;8.70;;;;;;;15.74;100.00;100999.13;4992619;28;20196;-72
2021/08/29 00:50:47;;;;;;;11.23;8.90;;;;;;;15.68;100.00;100997.59;4976102;28;20596;-72
2021/08/29 00:53:15;;;;;;;11.53;8.63;;;;;;;15.74;100.00;100999.13;4976723;28;20717;-72
2021/08/29 00:55:43;;;;;;;13.70;8.70;;;;;;;15.75;100.00;100996.09;4976298;28;20241;-73
2021/08/29 00:58:10;;;;;;;11.98;9.27;;;;;;;15.81;100.00;100992.97;4957369;28;20191;-72
2021/08/29 01:00:42;;;;;;;12.97;8.53;;;;;;;15.87;100.00;100994.50;4957138;28;20238;-73
2021/08/29 01:03:29;;;;;;;12.77;9.27;;;;;;;15.87;100.00;100990.97;4960920;28;20210;-71
2021/08/29 01:06:28;;;;;;;13.10;9.47;;;;;;;15.73;100.00;100992.81;4976162;28;20233;-71
2021/08/29 01:09:11;;;;;;;12.83;8.97;;;;;;;15.69;100.00;100982.78;4972907;28;20588;-73
2021/08/29 01:11:40;;;;;;;13.23;9.43;;;;;;;15.58;100.00;100976.63;4955948;28;20687;-73
2021/08/29 01:14:13;;;;;;;12.87;8.97;;;;;;;15.64;100.00;100974.63;4976515;28;20185;-74
2021/08/29 01:16:41;;;;;;;12.13;8.68;;;;;;;15.61;100.00;100981.53;4973593;28;20233;-73
2021/08/29 01:19:12;;;;;;;11.87;8.93;;;;;;;15.56;100.00;100983.53;4976126;28;20220;-73
2021/08/29 01:21:39;;;;;;;13.77;9.27;;;;;;;15.52;100.00;100968.81;4975785;28;20226;-73
2021/08/29 01:24:14;;;;;;;12.13;9.20;;;;;;;15.38;100.00;100981.59;4976634;28;20185;-74
2021/08/29 01:26:43;;;;;;;13.03;9.07;;;;;;;15.34;100.00;100986.03;4975972;28;20329;-74
2021/08/29 01:29:11;;;;;;;11.63;9.03;;;;;;;15.43;100.00;100979.59;4992005;28;20680;-74
2021/08/29 01:31:39;;;;;;;10.80;8.43;;;;;;;15.40;100.00;100974.72;4975806;28;20222;-73
2021/08/29 01:34:08;;;;;;;14.00;9.00;;;;;;;15.46;100.00;100972.72;4976289;28;20239;-73
2021/08/29 01:36:39;;;;;;;11.90;8.53;;;;;;;15.38;100.00;100970.63;4991174;28;20221;-74
2021/08/29 01:39:10;;;;;;;13.47;8.43;;;;;;;15.28;100.00;100976.28;4957317;28;20181;-74
2021/08/29 01:41:40;;;;;;;10.30;7.87;;;;;;;15.34;100.00;100975.09;4971989;28;20272;-73
2021/08/29 01:44:06;;;;;;;12.03;8.47;;;;;;;15.24;100.00;100979.91;5006160;28;20684;-72
2021/08/29 01:46:36;;;;;;;8.60;7.20;;;;;;;15.29;100.00;100972.44;4991003;28;20304;-72
2021/08/29 01:49:13;;;;;;;9.37;7.47;;;;;;;15.28;100.00;100981.75;4960217;28;20192;-72
2021/08/29 01:51:44;;;;;;;9.67;7.40;;;;;;;15.22;100.00;100977.47;4975590;28;20283;-72
2021/08/29 01:54:19;;;;;;;11.43;6.93;;;;;;;15.21;100.00;100973.06;4976874;28;20186;-72
2021/08/29 01:57:01;;;;;;;12.07;6.83;;;;;;;15.29;100.00;100980.66;4990836;28;20274;-73
2021/08/29 01:59:27;;;;;;;8.90;6.80;;;;;;;15.21;100.00;100975.00;4991126;28;20695;-73
2021/08/29 02:01:54;;;;;;;10.63;6.70;;;;;;;15.29;100.00;100975.16;4974865;28;20617;-72
2021/08/29 02:04:24;;;;;;;11.60;6.27;;;;;;;15.39;100.00;100972.28;4991802;28;20209;-73
2021/08/29 02:07:12;;;;;;;7.73;5.60;;;;;;;15.25;100.00;100978.78;4991180;28;20233;-72
2021/08/29 02:09:43;;;;;;;10.47;5.57;;;;;;;15.23;100.00;100973.59;4973601;28;20244;-72
2021/08/29 02:12:15;;;;;;;6.97;5.10;;;;;;;15.18;100.00;100970.94;4975483;28;20209;-72
2021/08/29 02:15:10;;;;;;;6.97;4.80;;;;;;;15.14;100.00;100969.06;4972208;28;20196;-74
2021/08/29 02:17:35;;;;;;;5.87;4.80;;;;;;;15.20;100.00;100970.63;5003532;28;20221;-73
2021/08/29 02:20:05;;;;;;;6.80;4.90;;;;;;;15.22;100.00;100961.03;4974031;28;20573;-74
2021/08/29 02:22:39;;;;;;;9.23;4.77;;;;;;;15.33;100.00;100964.41;4958993;28;20237;-76
2021/08/29 02:25:08;;;;;;;6.53;4.40;;;;;;;15.38;100.00;100965.16;4985551;28;20185;-73
2021/08/29 02:27:35;;;;;;;7.77;3.80;;;;;;;15.26;100.00;100961.25;4975576;28;20297;-71
2021/08/29 02:30:01;;;;;;;5.90;4.07;;;;;;;15.23;100.00;100962.66;4991482;28;20352;-74
2021/08/29 02:32:28;;;;;;;4.53;3.63;;;;;;;15.38;100.00;100961.63;4991080;28;20227;-72
2021/08/29 02:34:55;;;;;;;5.43;3.80;;;;;;;15.35;100.00;100965.78;4954324;28;20707;-72
2021/08/29 02:37:30;;;;;;;5.67;3.60;;;;;;;15.23;100.00;100951.69;4973050;28;20269;-73
2021/08/29 02:40:02;;;;;;;4.87;3.50;;;;;;;15.24;100.00;100947.88;4988858;28;20186;-72
2021/08/29 02:42:32;;;;;;;4.17;3.40;;;;;;;15.36;100.00;100958.38;4975388;28;20241;-70
2021/08/29 02:45:05;;;;;;;4.50;3.07;;;;;;;15.38;100.00;100956.94;4957336;28;20277;-73
2021/08/29 02:47:36;;;;;;;4.77;3.33;;;;;;;15.18;100.00;100960.00;4955232;28;20229;-73
2021/08/29 02:50:10;;;;;;;3.33;2.80;;;;;;;15.17;100.00;100961.09;4955139;28;20206;-73
2021/08/29 02:52:41;;;;;;;4.60;3.23;;;;;;;15.29;100.00;100961.50;4970057;28;20243;-73
2021/08/29 02:55:11;;;;;;;3.70;3.03;;;;;;;15.40;100.00;100952.00;4990467;28;20178;-73
2021/08/29 02:57:42;;;;;;;4.27;3.13;;;;;;;15.34;100.00;100955.91;4962902;28;20631;-72
2021/08/29 03:00:46;;;;;;;4.77;3.13;;;;;;;15.33;100.00;100951.56;4959349;28;20652;-73
2021/08/29 03:03:23;;;;;;;3.83;3.40;;;;;;;15.31;100.00;100945.56;4972631;28;20218;-73
2021/08/29 03:05:50;;;;;;;3.57;3.13;;;;;;;15.25;100.00;100943.19;4991558;28;20251;-73
2021/08/29 03:08:18;;;;;;;5.10;3.70;;;;;;;15.18;100.00;100943.56;4991335;28;20192;-73
2021/08/29 03:10:43;;;;;;;5.00;3.40;;;;;;;15.20;100.00;100946.84;4989981;28;20217;-72
2021/08/29 03:13:10;;;;;;;4.03;3.30;;;;;;;15.26;100.00;100944.84;4990959;28;20178;-73
2021/08/29 03:15:43;;;;;;;5.10;3.60;;;;;;;15.37;100.00;100938.91;4990047;28;20225;-73
2021/08/29 03:18:32;;;;;;;4.73;3.53;;;;;;;15.20;100.00;100937.78;4971706;28;20193;-71
2021/08/29 03:21:01;;;;;;;5.47;3.70;;;;;;;15.22;100.00;100932.81;4974375;28;20282;-72
2021/08/29 03:23:29;;;;;;;4.67;3.77;;;;;;;15.11;100.00;100943.09;4991432;28;20269;-74
2021/08/29 03:26:00;;;;;;;4.10;3.70;;;;;;;15.28;100.00;100942.63;4989758;28;20221;-72
2021/08/29 03:28:26;;;;;;;4.60;3.50;;;;;;;15.33;100.00;100935.16;4995417;28;20188;-72
2021/08/29 03:30:54;;;;;;;5.60;3.60;;;;;;;15.35;100.00;100943.88;4990972;28;20257;-71
2021/08/29 03:33:19;;;;;;;4.90;3.60;;;;;;;15.37;100.00;100940.84;4990523;28;20178;-73
2021/08/29 03:35:45;;;;;;;3.97;3.57;;;;;;;15.31;100.00;100937.38;4989610;28;20785;-73
2021/08/29 03:38:20;;;;;;;4.47;4.07;;;;;;;15.24;100.00;100936.13;4958582;28;20178;-72
2021/08/29 03:40:50;;;;;;;5.60;4.03;;;;;;;15.05;100.00;100937.97;4974124;28;20260;-74
2021/08/29 03:43:19;;;;;;;6.13;3.93;;;;;;;15.08;100.00;100938.19;4977390;28;20221;-74
2021/08/29 03:45:50;;;;;;;5.80;4.60;;;;;;;15.16;100.00;100932.13;4973274;28;20243;-71
2021/08/29 03:48:16;;;;;;;6.53;4.83;;;;;;;15.12;100.00;100932.94;4958470;28;20193;-72
2021/08/29 03:50:44;;;;;;;5.13;4.57;;;;;;;15.20;100.00;100929.56;4989397;28;20249;-73
2021/08/29 03:53:13;;;;;;;7.00;5.33;;;;;;;15.19;100.00;100934.25;4990025;28;20190;-73
2021/08/29 03:55:44;;;;;;;6.50;5.30;;;;;;;15.28;100.00;100918.78;4958937;28;20233;-73
2021/08/29 03:58:10;;;;;;;5.50;4.93;;;;;;;15.24;100.00;100915.03;4973709;28;20178;-73
2021/08/29 04:00:45;;;;;;;8.00;6.27;;;;;;;15.27;100.00;100919.88;4989748;28;20221;-72
2021/08/29 04:03:18;;;;;;;7.83;6.13;;;;;;;15.25;100.00;100922.09;4974793;28;20214;-73
2021/08/29 04:06:08;;;;;;;10.17;6.67;;;;;;;15.19;100.00;100915.09;4990218;28;20252;-76
2021/08/29 04:08:35;;;;;;;8.87;6.43;;;;;;;15.22;100.00;100921.88;4973353;28;20185;-73
2021/08/29 04:11:00;;;;;;;9.97;7.00;;;;;;;15.24;100.00;100919.69;4990912;28;20288;-74
2021/08/29 04:13:30;;;;;;;9.80;6.87;;;;;;;15.23;100.00;100921.59;4990268;28;20181;-73
2021/08/29 04:16:22;;;;;;;9.90;8.83;;;;;;;15.07;100.00;100925.63;4987204;28;20221;-72
2021/08/29 04:18:53;;;;;;;13.70;10.53;;;;;;;15.21;100.00;100928.47;4988719;28;20277;-73
2021/08/29 04:21:22;;;;;;;11.27;9.13;;;;;;;15.08;100.00;100916.31;4991229;28;20225;-72
2021/08/29 04:23:48;;;;;;;13.13;10.50;;;;;;;15.14;100.00;100919.81;4993505;28;20186;-73
2021/08/29 04:26:13;;;;;;;11.17;9.00;;;;;;;15.07;100.00;100914.69;4976092;28;20225;-73
2021/08/29 04:28:43;;;;;;;11.17;9.37;;;;;;;15.23;100.00;100921.59;4976947;28;20203;-72
2021/08/29 04:31:11;;;;;;;12.73;9.33;;;;;;;15.24;100.00;100915.03;4992625;28;20217;-73
2021/08/29 04:33:47;;;;;;;13.90;10.37;;;;;;;15.26;100.00;100912.81;4978325;28;20177;-73
2021/08/29 04:36:44;;;;;;;13.10;10.97;;;;;;;15.19;100.00;100912.34;4985688;28;20237;-73
2021/08/29 04:39:39;;;;;;;15.83;11.03;;;;;;;15.14;100.00;100912.41;4982557;28;20244;-73
2021/08/29 04:42:05;;;;;;;18.73;12.10;;;;;;;15.10;100.00;100914.09;4977211;28;20225;-73
2021/08/29 04:44:30;;;;;;;17.37;11.60;;;;;;;15.10;100.00;100922.28;4993074;28;20679;-74
2021/08/29 04:46:57;;;;;;;17.73;11.80;;;;;;;15.19;100.00;100919.75;4973424;28;20232;-73
2021/08/29 04:49:24;;;;;;;17.53;12.33;;;;;;;15.12;100.00;100922.00;4957328;28;20182;-73
2021/08/29 04:51:52;;;;;;;22.43;12.70;;;;;;;15.15;100.00;100925.00;4987290;28;20275;-73
2021/08/29 04:54:21;;;;;;;14.13;11.80;;;;;;;15.08;100.00;100920.97;4992911;28;20247;-73
2021/08/29 04:56:48;;;;;;;16.57;11.80;;;;;;;15.10;100.00;100924.22;4976075;28;20217;-73
2021/08/29 04:59:16;;;;;;;17.93;12.43;;;;;;;15.12;100.00;100919.28;4992536;28;20190;-73
2021/08/29 05:01:45;;;;;;;14.73;12.00;;;;;;;15.13;100.00;100924.50;4992207;28;20279;-73
2021/08/29 05:04:11;;;;;;;16.13;11.87;;;;;;;15.17;100.00;100924.72;4992894;28;20178;-73
2021/08/29 05:06:37;;;;;;;15.40;12.10;;;;;;;15.09;100.00;100920.69;4991008;28;20221;-74
2021/08/29 05:09:06;;;;;;;19.33;13.30;;;;;;;15.24;100.00;100931.44;4976416;28;20188;-73
2021/08/29 05:11:32;;;;;;;17.80;12.60;;;;;;;15.24;100.00;100922.44;4975709;28;20226;-72
2021/08/29 05:13:58;;;;;;;17.43;12.10;;;;;;;15.34;100.00;100925.00;4977017;28;20196;-73
2021/08/29 05:16:23;;;;;;;15.43;12.07;;;;;;;15.28;100.00;100931.66;4975886;28;20222;-73
2021/08/29 05:18:49;;;;;;;20.93;13.90;;;;;;;15.05;100.00;100936.06;4991750;28;20189;-75
2021/08/29 05:21:22;;;;;;;19.67;13.10;;;;;;;14.98;100.00;100936.69;4976182;28;20717;-73
2021/08/29 05:24:08;;;;;;;19.00;14.20;;;;;;;14.86;100.00;100933.59;4988140;28;20185;-73
2021/08/29 05:26:48;;;;;;;17.03;12.70;;;;;;;15.06;100.00;100934.94;4949519;28;20364;-73
2021/08/29 05:29:14;;;;;;;18.47;13.27;;;;;;;15.08;100.00;100940.94;4988829;28;20186;-73
2021/08/29 05:31:41;;;;;;;16.87;12.57;;;;;;;15.25;100.00;100932.25;4990473;28;20206;-73
2021/08/29 05:34:07;;;;;;;17.20;12.90;;;;;;;15.20;100.00;100930.41;4992157;28;20277;-75
2021/08/29 05:36:38;;;;;;;21.37;14.53;;;;;;;15.08;100.00;100938.19;4973899;28;20242;-73
2021/08/29 05:39:06;;;;;;;16.90;13.10;;;;;;;15.04;100.00;100942.63;4976097;28;20269;-73
2021/08/29 05:41:33;;;;;;;18.30;13.10;;;;;;;15.03;100.00;100935.53;4996931;28;20217;-73
2021/08/29 05:44:18;;;;;;;17.30;13.00;;;;;;;15.06;100.00;100929.47;5001644;28;20205;-72
2021/08/29 05:46:44;;;;;;;15.70;12.67;;;;;;;15.14;100.00;100928.84;4963963;28;20226;-73
2021/08/29 05:49:10;;;;;;;18.20;13.50;;;;;;;15.02;100.00;100941.31;4963314;28;20182;-73
2021/08/29 05:51:36;;;;;;;16.73;13.40;;;;;;;15.09;100.00;100928.06;4974143;28;20220;-73
2021/08/29 05:54:02;;;;;;;21.27;18.00;;;;;;;15.18;100.00;100938.09;5002770;28;20194;-73
2021/08/29 05:56:28;;;;;;;20.63;16.00;;;;;;;15.12;100.00;100933.75;4993323;28;20205;-74
2021/08/29 05:58:55;;;;;;;16.57;12.87;;;;;;;15.15;100.00;100938.69;4992157;28;20647;-72
2021/08/29 06:01:21;;;;;;;17.13;14.73;;;;;;;15.22;100.00;100939.13;4975790;28;20245;-74
2021/08/29 06:03:51;;;;;;;15.13;11.77;;;;;;;15.16;100.00;100932.13;4961444;28;20189;-74
2021/08/29 06:06:39;;;;;;;17.70;14.17;;;;;;;15.07;100.00;100946.69;4991481;28;20275;-73
2021/08/29 06:09:05;;;;;;;16.40;11.40;;;;;;;15.09;100.00;100939.00;4974712;28;20186;-72
2021/08/29 06:11:35;;;;;;;14.80;11.47;;;;;;;15.24;100.00;100936.13;4989797;28;20232;-73
2021/08/29 06:14:02;;;;;;;15.60;11.70;;;;;;;15.26;100.00;100934.69;4959559;28;20648;-72
2021/08/29 06:16:30;;;;;;;15.80;11.43;;;;;;;15.29;100.00;100928.66;4974263;28;20314;-73
2021/08/29 06:18:56;;;;;;;15.73;11.30;;;;;;;15.24;100.00;100930.63;4974912;28;20194;-72
2021/08/29 06:21:25;;;;;;;16.23;11.37;;;;;;;15.24;100.00;100928.72;4990741;28;20276;-73
2021/08/29 06:23:53;;;;;;;21.43;17.33;;;;;;;15.34;100.00;100925.00;4992207;28;20702;-73
2021/08/29 06:26:51;;;;;;;35.23;28.57;;;;;;;15.32;100.00;100928.03;4990609;28;20233;-72
2021/08/29 06:29:35;;;;;;;15.67;12.13;;;;;;;15.39;100.00;100933.94;4991026;28;20587;-74
2021/08/29 06:32:20;;;;;;;12.10;9.90;;;;;;;15.49;100.00;100928.31;4991667;28;20279;-72
2021/08/29 06:35:08;;;;;;;13.73;10.67;;;;;;;15.56;100.00;100928.75;4991004;28;20186;-72
2021/08/29 06:37:43;;;;;;;11.32;9.23;;;;;;;15.55;100.00;100929.88;4976047;28;20220;-72
2021/08/29 06:40:12;;;;;;;11.13;8.70;;;;;;;15.50;100.00;100921.75;4991461;28;20181;-72
2021/08/29 06:42:38;;;;;;;11.47;9.03;;;;;;;15.66;100.00;100912.13;4974243;28;20744;-73
2021/08/29 06:45:27;;;;;;;9.37;7.87;;;;;;;15.57;100.00;100919.44;4976622;28;20721;-72
2021/08/29 06:48:21;;;;;;;9.43;7.97;;;;;;;15.45;100.00;100924.53;4975252;28;20687;-73
2021/08/29 06:51:19;;;;;;;11.43;8.07;;;;;;;15.63;100.00;100919.03;4990132;28;20320;-72
2021/08/29 06:54:23;;;;;;;9.23;7.33;;;;;;;15.58;100.00;100921.84;4982177;28;20197;-72
2021/08/29 06:57:29;;;;;;;9.70;8.20;;;;;;;15.41;100.00;100926.25;4927443;29;20241;-72
2021/08/29 06:59:55;;;;;;;8.93;7.07;;;;;;;15.44;100.00;100922.94;4972917;28;20573;-72
2021/08/29 07:02:22;;;;;;;12.03;8.07;;;;;;;15.42;100.00;100928.69;4972066;28;20234;-73
2021/08/29 07:04:50;;;;;;;11.70;8.40;;;;;;;15.53;100.00;100934.81;4974682;28;20190;-73
2021/08/29 07:07:15;;;;;;;8.37;6.80;;;;;;;15.57;100.00;100935.88;4973494;28;20340;-73
2021/08/29 07:10:05;;;;;;;17.83;14.93;;;;;;;15.60;100.00;100932.50;4970236;28;20345;-74
2021/08/29 07:12:36;;;;;;;7.80;7.00;;;;;;;15.61;100.00;100932.22;4973064;28;20178;-74
2021/08/29 07:15:30;;;;;;;9.97;7.20;;;;;;;15.79;100.00;100931.38;4964830;28;20225;-72
2021/08/29 07:17:57;;;;;;;15.50;12.50;;;;;;;15.81;100.00;100920.94;4955258;28;20236;-72
2021/08/29 07:20:56;;;;;;;8.77;6.70;;;;;;;15.81;100.00;100916.25;4971496;28;20251;-73
2021/08/29 07:23:43;;;;;;;7.10;6.17;;;;;;;15.76;100.00;100925.69;4975163;28;20267;-73
2021/08/29 07:26:29;;;;;;;6.47;5.20;;;;;;;15.83;100.00;100935.16;4975763;28;20889;-73
2021/08/29 07:29:16;;;;;;;8.97;8.17;;;;;;;15.92;100.00;100925.13;4991373;28;20208;-74
2021/08/29 07:32:14;;;;;;;6.47;5.87;;;;;;;15.86;100.00;100929.09;4968549;28;20249;-73
2021/08/29 07:34:41;;;;;;;4.93;4.10;;;;;;;16.07;100.00;100936.63;4972226;28;20185;-71
2021/08/29 07:37:30;;;;;;;5.37;4.37;;;;;;;16.14;100.00;100937.06;4987870;28;20308;-74
2021/08/29 07:40:02;;;;;;;4.90;4.40;;;;;;;16.10;100.00;100925.06;4956027;28;20601;-69
2021/08/29 07:42:31;;;;;;;5.07;4.57;;;;;;;15.93;100.00;100930.31;4955462;28;20281;-74
2021/08/29 07:44:56;;;;;;;5.70;4.37;;;;;;;16.06;100.00;100926.81;4988968;28;20189;-72
2021/08/29 07:47:30;;;;;;;5.00;4.43;;;;;;;16.03;100.00;100935.63;4973846;28;20742;-74
2021/08/29 07:49:59;;;;;;;5.17;4.33;;;;;;;15.88;100.00;100927.66;4991265;28;20192;-76
2021/08/29 07:52:27;;;;;;;4.77;4.20;;;;;;;15.85;100.00;100928.25;4989512;28;20218;-73
2021/08/29 07:55:14;;;;;;;5.03;4.13;;;;;;;15.85;100.00;100933.72;4992830;28;20207;-75
2021/08/29 07:58:04;;;;;;;4.70;4.23;;;;;;;16.01;100.00;100924.13;4993830;28;20196;-74
2021/08/29 08:00:36;;;;;;;4.10;3.73;;;;;;;16.13;100.00;100929.94;4958836;28;20252;-76
2021/08/29 08:03:20;;;;;;;4.70;4.17;;;;;;;16.20;100.00;100928.47;4994858;28;20229;-75
2021/08/29 08:06:05;;;;;;;4.30;3.90;;;;;;;16.11;100.00;100940.41;4986974;28;20360;-72
2021/08/29 08:08:49;;;;;;;6.50;4.10;;;;;;;16.06;100.00;100935.03;4980877;28;20193;-77
2021/08/29 08:11:33;;;;;;;5.00;4.60;;;;;;;16.20;100.00;100930.41;4995959;28;20286;-74
2021/08/29 08:14:03;;;;;;;5.23;4.30;;;;;;;16.43;100.00;100926.69;4994252;28;20193;-74
2021/08/29 08:16:28;;;;;;;4.43;3.90;;;;;;;16.24;100.00;100931.41;4994593;28;20308;-73
2021/08/29 08:18:56;;;;;;;5.07;4.20;;;;;;;16.28;100.00;100929.69;4977410;28;20197;-74
2021/08/29 08:21:26;;;;;;;4.97;3.88;;;;;;;16.57;100.00;100936.53;4993113;28;20655;-74
2021/08/29 08:24:20;;;;;;;3.93;3.30;;;;;;;16.56;100.00;100936.84;4971667;28;20671;-73
2021/08/29 08:27:06;;;;;;;3.80;3.37;;;;;;;16.32;100.00;100939.75;4973777;28;20288;-73
2021/08/29 08:29:58;;;;;;;3.47;3.17;;;;;;;16.34;100.00;100931.25;4956057;28;20190;-75
2021/08/29 08:32:45;;;;;;;2.80;2.60;;;;;;;16.33;100.00;100940.56;4994370;28;20220;-74
2021/08/29 08:35:27;;;;;;;3.67;3.38;;;;;;;16.29;100.00;100939.56;4973445;28;20186;-74
2021/08/29 08:38:27;;;;;;;4.47;3.67;;;;;;;16.44;100.00;100939.25;4945839;28;20226;-72
2021/08/29 08:41:13;;;;;;;4.25;3.47;;;;;;;16.39;100.00;100939.34;4951305;28;20280;-72
2021/08/29 08:43:59;;;;;;;3.88;3.58;;;;;;;16.35;100.00;100943.81;4977134;28;20222;-73
2021/08/29 08:46:45;;;;;;;3.77;3.47;;;;;;;16.51;100.00;100936.94;4994337;28;20241;-74
2021/08/29 08:49:30;;;;;;;4.32;3.92;;;;;;;16.66;100.00;100935.50;4995151;28;20208;-74
2021/08/29 08:52:18;;;;;;;4.50;4.10;;;;;;;16.61;100.00;100938.38;4974073;28;20224;-75
2021/08/29 08:55:07;;;;;;;4.00;3.60;;;;;;;16.54;100.00;100942.63;4960559;28;20225;-73
2021/08/29 08:57:54;;;;;;;4.20;3.60;;;;;;;16.68;100.00;100938.78;4981498;28;20195;-73
2021/08/29 09:00:44;;;;;;;4.10;3.67;;;;;;;16.80;100.00;100941.81;4973461;28;20221;-74
2021/08/29 09:03:34;;;;;;;3.60;3.30;;;;;;;17.06;100.00;100940.16;4975182;28;20223;-75
2021/08/29 09:06:19;;;;;;;3.10;2.90;;;;;;;17.33;100.00;100925.28;4992810;28;20233;-76
2021/08/29 09:08:46;;;;;;;3.55;2.70;;;;;;;17.26;100.00;100934.25;4977332;28;20266;-76
2021/08/29 09:11:13;;;;;;;2.80;2.30;;;;;;;17.30;100.00;100935.25;4993076;28;20233;-74
2021/08/29 09:13:50;;;;;;;2.20;2.00;;;;;;;17.70;100.00;100930.44;4994508;28;20184;-74
2021/08/29 09:16:18;;;;;;;2.20;2.10;;;;;;;17.49;100.00;100934.78;4993003;28;20244;-74
2021/08/29 09:18:47;;;;;;;2.15;1.95;;;;;;;17.62;100.00;100933.94;4993023;28;20240;-74
2021/08/29 09:21:27;;;;;;;3.53;2.72;;;;;;;17.70;100.00;100930.44;4994066;28;20587;-75
2021/08/29 09:23:56;;;;;;;7.10;5.82;;;;;;;17.87;100.00;100936.84;4973601;28;20184;-73
2021/08/29 09:26:54;;;;;;;2.75;1.60;;;;;;;18.09;100.00;100944.31;4956820;28;20229;-74
2021/08/29 09:29:44;;;;;;;1.70;1.60;;;;;;;17.83;100.00;100946.03;4961232;28;20676;-74
2021/08/29 09:32:20;;;;;;;1.85;1.75;;;;;;;17.94;100.00;100939.16;4957111;28;20224;-76
2021/08/29 09:35:04;;;;;;;6.03;5.43;;;;;;;18.15;100.00;100944.69;4964327;28;20186;-74
2021/08/29 09:37:57;;;;;;;4.88;4.30;;;;;;;18.07;100.00;100946.53;4998296;28;20216;-74
2021/08/29 09:40:41;;;;;;;1.20;1.20;;;;;;;18.14;100.00;100954.03;4975956;28;20252;-74
2021/08/29 09:43:11;;;;;;;4.95;4.45;;;;;;;18.23;100.00;100952.16;4977827;28;20198;-73
2021/08/29 09:45:42;;;;;;;1.60;1.50;;;;;;;18.26;100.00;100959.78;4975635;28;20253;-77
2021/08/29 09:48:26;;;;;;;1.33;1.20;;;;;;;18.31;100.00;100950.56;4991362;28;20669;-75
2021/08/29 09:51:18;;;;;;;0.82;0.82;;;;;;;18.01;100.00;100953.28;4971647;28;20317;-74
2021/08/29 09:54:03;;;;;;;1.67;1.27;;;;;;;18.09;100.00;100950.59;4987329;28;20197;-73
2021/08/29 09:56:53;;;;;;;1.20;1.10;;;;;;;18.34;100.00;100953.50;4988645;28;20228;-74
2021/08/29 09:59:45;;;;;;;1.50;1.40;;;;;;;18.34;100.00;100948.00;4990612;28;20193;-74
2021/08/29 10:02:25;;;;;;;1.50;1.40;;;;;;;18.27;100.00;100947.66;4989026;28;20211;-73
2021/08/29 10:05:12;;;;;;;1.45;1.35;;;;;;;18.09;100.00;100955.31;4989349;28;20186;-74
2021/08/29 10:07:56;;;;;;;1.42;1.33;;;;;;;18.23;100.00;100949.41;4989786;28;20340;-73
2021/08/29 10:10:27;;;;;;;1.20;1.20;;;;;;;18.12;100.00;100948.03;4975504;28;20686;-74
2021/08/29 10:12:56;;;;;;;1.60;1.50;;;;;;;18.36;100.00;100948.50;4976740;28;20197;-73
2021/08/29 10:15:25;;;;;;;1.67;1.23;;;;;;;18.57;100.00;100958.66;4982864;28;20208;-73
2021/08/29 10:18:01;;;;;;;1.60;1.38;;;;;;;18.49;100.00;100944.84;4993183;28;20617;-73
2021/08/29 10:20:47;;;;;;;3.15;2.38;;;;;;;18.65;100.00;100940.56;4992788;28;20251;-73
2021/08/29 10:23:18;;;;;;;2.67;2.30;;;;;;;18.62;100.00;100943.94;4972411;28;20206;-74
2021/08/29 10:25:44;;;;;;;2.03;1.65;;;;;;;18.44;100.00;100935.91;4990677;28;20241;-75
2021/08/29 10:28:51;;;;;;;2.20;2.00;;;;;;;18.54;100.00;100930.97;4991908;28;20198;-73
2021/08/29 10:31:37;;;;;;;2.10;2.00;;;;;;;18.80;100.00;100923.59;4972866;28;20228;-73
2021/08/29 10:34:23;;;;;;;2.92;2.00;;;;;;;18.86;100.00;100936.88;4959885;28;20186;-73
2021/08/29 10:36:49;;;;;;;2.40;2.20;;;;;;;18.82;100.00;100929.59;4989806;28;20270;-72
2021/08/29 10:39:33;;;;;;;1.80;1.70;;;;;;;18.85;100.00;100926.22;4975280;28;20726;-72
2021/08/29 10:42:24;;;;;;;2.33;2.00;;;;;;;18.97;100.00;100930.81;4962276;28;20217;-74
2021/08/29 10:45:25;;;;;;;2.30;2.17;;;;;;;18.98;100.00;100931.63;4951144;28;20281;-75
2021/08/29 10:48:25;;;;;;;2.20;2.00;;;;;;;19.41;100.00;100925.84;4988895;28;20273;-74
2021/08/29 10:51:07;;;;;;;2.50;2.33;;;;;;;19.20;100.00;100928.75;4949828;28;20233;-76
2021/08/29 10:53:37;;;;;;;2.58;2.38;;;;;;;19.44;100.00;100927.94;4975724;28;20269;-77
2021/08/29 10:56:16;;;;;;;2.60;2.40;;;;;;;19.39;100.00;100930.84;4975726;28;20226;-74
2021/08/29 10:58:48;;;;;;;4.70;2.28;;;;;;;19.08;100.00;100921.13;4992931;28;20192;-74
2021/08/29 11:01:32;;;;;;;2.72;2.47;;;;;;;19.09;100.00;100922.72;4988613;28;20646;-75
2021/08/29 11:04:19;;;;;;;2.50;2.30;;;;;;;19.05;100.00;100927.25;4996943;28;20670;-76
2021/08/29 11:06:58;;;;;;;2.45;2.30;;;;;;;19.04;100.00;100931.13;4992782;28;20224;-75
2021/08/29 11:09:36;;;;;;;2.97;2.78;;;;;;;18.90;100.00;100930.44;4977618;28;20189;-76
2021/08/29 11:12:19;;;;;;;3.17;2.88;;;;;;;18.94;100.00;100936.13;4993123;28;20757;-74
2021/08/29 11:15:01;;;;;;;3.25;3.00;;;;;;;19.25;100.00;100936.84;4993581;28;20284;-74
2021/08/29 11:17:30;;;;;;;3.13;2.92;;;;;;;19.53;100.00;100928.75;4976481;28;20225;-73
2021/08/29 11:20:07;;;;;;;2.42;2.25;;;;;;;19.21;100.00;100936.69;4969051;28;20197;-73
2021/08/29 11:22:50;;;;;;;2.50;2.35;;;;;;;19.31;100.00;100937.19;4988673;28;20213;-74
2021/08/29 11:25:35;;;;;;;3.00;2.80;;;;;;;19.18;100.00;100937.31;4992611;28;20256;-74
2021/08/29 11:28:29;;;;;;;2.97;2.78;;;;;;;18.93;100.00;100935.28;4992728;28;20678;-76
2021/08/29 11:31:13;;;;;;;2.80;2.60;;;;;;;18.95;100.00;100937.72;4981735;28;20221;-76
2021/08/29 11:33:45;;;;;;;3.05;2.85;;;;;;;18.80;100.00;100940.91;4982536;28;20204;-75
2021/08/29 11:36:28;;;;;;;2.70;2.50;;;;;;;18.71;100.00;100934.56;4990915;28;20217;-74
2021/08/29 11:39:31;;;;;;;3.22;2.92;;;;;;;18.65;100.00;100935.03;4995955;28;20189;-76
2021/08/29 11:42:16;;;;;;;3.35;3.10;;;;;;;18.85;100.00;100942.75;4995239;28;20581;-75
2021/08/29 11:44:47;;;;;;;3.33;3.13;;;;;;;18.90;100.00;100935.94;4947515;28;20842;-77
2021/08/29 11:47:13;;;;;;;2.97;2.78;;;;;;;18.73;100.00;100940.56;4977348;28;20400;-75
2021/08/29 11:50:03;;;;;;;3.40;3.13;;;;;;;18.77;100.00;100936.06;4978805;28;20198;-75